Terminal Aerodrome Forecast
Issued by NWS St Louis, MO

Home | Current Version | Previous Version | Text Only | Print | Product List | Glossary On
Versions: 1 2 3 4 5 6 7 8 9 10 11 12 13 14 15 16 17 18 19 20 21 22 23 24 25
000
FTUS43 KLSX 162340
TAFCOU
TAF
KCOU 162340Z 1700/1724 14008KT 3SM SHRA BR VCTS OVC008CB
     FM170200 21006KT 4SM BR OVC010
     FM170400 24007KT 5SM BR OVC010
     FM171000 26008KT 5SM BR OVC008
     FM172100 27010KT 6SM BR OVC012=

USA.gov is the U.S. government's official web portal to all federal, state and local government web resources and services.